sensor_id;sensor_type;location;lat;lon;timestamp;temperature;humidity
29777;DHT22;16677;52.224;7.484;2023-04-06T00:00:48;1.90;95.30
29777;DHT22;16677;52.224;7.484;2023-04-06T00:03:16;2.00;95.00
29777;DHT22;16677;52.224;7.484;2023-04-06T00:05:43;2.00;96.80
29777;DHT22;16677;52.224;7.484;2023-04-06T00:08:10;2.00;99.50
29777;DHT22;16677;52.224;7.484;2023-04-06T00:10:37;2.00;94.50
29777;DHT22;16677;52.224;7.484;2023-04-06T00:13:04;1.90;86.80
29777;DHT22;16677;52.224;7.484;2023-04-06T00:15:32;1.90;77.00
29777;DHT22;16677;52.224;7.484;2023-04-06T00:17:59;1.90;56.00
29777;DHT22;16677;52.224;7.484;2023-04-06T00:20:27;1.80;40.80
29777;DHT22;16677;52.224;7.484;2023-04-06T00:22:54;1.80;61.00
29777;DHT22;16677;52.224;7.484;2023-04-06T00:25:21;1.80;77.20
29777;DHT22;16677;52.224;7.484;2023-04-06T00:27:48;1.70;70.20
29777;DHT22;16677;52.224;7.484;2023-04-06T00:30:15;1.80;42.20
29777;DHT22;16677;52.224;7.484;2023-04-06T00:32:42;1.80;33.00
29777;DHT22;16677;52.224;7.484;2023-04-06T00:35:09;1.80;24.30
29777;DHT22;16677;52.224;7.484;2023-04-06T00:37:37;1.80;22.00
29777;DHT22;16677;52.224;7.484;2023-04-06T00:40:04;1.70;17.40
29777;DHT22;16677;52.224;7.484;2023-04-06T00:42:31;1.70;32.20
29777;DHT22;16677;52.224;7.484;2023-04-06T00:44:59;1.80;26.70
29777;DHT22;16677;52.224;7.484;2023-04-06T00:47:26;1.70;17.20
29777;DHT22;16677;52.224;7.484;2023-04-06T00:49:54;1.80;28.00
29777;DHT22;16677;52.224;7.484;2023-04-06T00:52:21;1.80;23.10
29777;DHT22;16677;52.224;7.484;2023-04-06T00:54:49;1.90;17.70
29777;DHT22;16677;52.224;7.484;2023-04-06T00:57:17;1.90;1.00
29777;DHT22;16677;52.224;7.484;2023-04-06T00:59:45;1.90;1.00
29777;DHT22;16677;52.224;7.484;2023-04-06T01:02:12;1.80;1.00
29777;DHT22;16677;52.224;7.484;2023-04-06T01:04:39;1.80;1.00
29777;DHT22;16677;52.224;7.484;2023-04-06T01:07:06;1.80;1.00
29777;DHT22;16677;52.224;7.484;2023-04-06T01:09:33;1.90;1.00
29777;DHT22;16677;52.224;7.484;2023-04-06T01:12:01;1.80;1.00
29777;DHT22;16677;52.224;7.484;2023-04-06T01:14:28;1.70;1.00
29777;DHT22;16677;52.224;7.484;2023-04-06T01:16:57;1.70;1.00
29777;DHT22;16677;52.224;7.484;2023-04-06T01:19:26;1.80;1.00
29777;DHT22;16677;52.224;7.484;2023-04-06T01:21:53;1.70;1.00
29777;DHT22;16677;52.224;7.484;2023-04-06T01:24:20;1.60;1.00
29777;DHT22;16677;52.224;7.484;2023-04-06T01:26:48;1.60;1.00
29777;DHT22;16677;52.224;7.484;2023-04-06T01:29:15;1.60;1.00
29777;DHT22;16677;52.224;7.484;2023-04-06T01:31:42;1.50;1.00
29777;DHT22;16677;52.224;7.484;2023-04-06T01:34:09;1.40;1.00
29777;DHT22;16677;52.224;7.484;2023-04-06T01:36:36;1.30;9.60
29777;DHT22;16677;52.224;7.484;2023-04-06T01:39:03;1.30;31.10
29777;DHT22;16677;52.224;7.484;2023-04-06T01:41:31;1.40;22.50
29777;DHT22;16677;52.224;7.484;2023-04-06T01:43:58;1.40;29.10
29777;DHT22;16677;52.224;7.484;2023-04-06T01:46:25;1.30;48.40
29777;DHT22;16677;52.224;7.484;2023-04-06T01:48:52;1.30;47.60
29777;DHT22;16677;52.224;7.484;2023-04-06T01:51:19;1.20;52.20
29777;DHT22;16677;52.224;7.484;2023-04-06T01:53:46;1.20;60.90
29777;DHT22;16677;52.224;7.484;2023-04-06T01:56:14;1.20;85.20
29777;DHT22;16677;52.224;7.484;2023-04-06T01:58:41;1.20;99.90
29777;DHT22;16677;52.224;7.484;2023-04-06T02:01:08;1.20;93.40
29777;DHT22;16677;52.224;7.484;2023-04-06T02:03:36;1.10;99.90
29777;DHT22;16677;52.224;7.484;2023-04-06T02:06:03;1.10;99.90
29777;DHT22;16677;52.224;7.484;2023-04-06T02:08:30;1.00;99.90
29777;DHT22;16677;52.224;7.484;2023-04-06T02:10:57;1.00;99.90
29777;DHT22;16677;52.224;7.484;2023-04-06T02:13:24;1.00;99.90
29777;DHT22;16677;52.224;7.484;2023-04-06T02:15:51;1.00;99.90
29777;DHT22;16677;52.224;7.484;2023-04-06T02:18:18;0.90;95.00
29777;DHT22;16677;52.224;7.484;2023-04-06T02:20:45;0.90;99.90
29777;DHT22;16677;52.224;7.484;2023-04-06T02:23:12;0.90;97.30
29777;DHT22;16677;52.224;7.484;2023-04-06T02:25:39;0.90;99.90
29777;DHT22;16677;52.224;7.484;2023-04-06T02:28:06;0.90;99.90
29777;DHT22;16677;52.224;7.484;2023-04-06T02:30:33;0.90;99.90
29777;DHT22;16677;52.224;7.484;2023-04-06T02:33:01;0.90;99.90
29777;DHT22;16677;52.224;7.484;2023-04-06T02:35:29;0.90;99.90
29777;DHT22;16677;52.224;7.484;2023-04-06T02:37:57;1.00;99.90
29777;DHT22;16677;52.224;7.484;2023-04-06T02:40:24;0.90;99.90
29777;DHT22;16677;52.224;7.484;2023-04-06T02:42:51;0.90;99.90
29777;DHT22;16677;52.224;7.484;2023-04-06T02:45:18;0.90;99.90
29777;DHT22;16677;52.224;7.484;2023-04-06T02:47:45;1.10;99.90
29777;DHT22;16677;52.224;7.484;2023-04-06T02:50:12;1.00;97.20
29777;DHT22;16677;52.224;7.484;2023-04-06T02:52:39;0.90;92.30
29777;DHT22;16677;52.224;7.484;2023-04-06T02:55:06;0.90;99.90
29777;DHT22;16677;52.224;7.484;2023-04-06T02:57:34;0.80;99.60
29777;DHT22;16677;52.224;7.484;2023-04-06T03:00:01;0.70;99.90
29777;DHT22;16677;52.224;7.484;2023-04-06T03:02:28;0.70;99.90
29777;DHT22;16677;52.224;7.484;2023-04-06T03:04:55;0.70;99.90
29777;DHT22;16677;52.224;7.484;2023-04-06T03:07:22;0.80;99.90
29777;DHT22;16677;52.224;7.484;2023-04-06T03:09:49;0.70;99.90
29777;DHT22;16677;52.224;7.484;2023-04-06T03:12:16;0.70;99.90
29777;DHT22;16677;52.224;7.484;2023-04-06T03:14:43;0.60;99.90
29777;DHT22;16677;52.224;7.484;2023-04-06T03:17:10;0.70;99.90
29777;DHT22;16677;52.224;7.484;2023-04-06T03:19:37;0.80;99.90
29777;DHT22;16677;52.224;7.484;2023-04-06T03:22:04;1.00;99.90
29777;DHT22;16677;52.224;7.484;2023-04-06T03:24:31;1.10;99.90
29777;DHT22;16677;52.224;7.484;2023-04-06T03:26:58;1.20;91.80
29777;DHT22;16677;52.224;7.484;2023-04-06T03:29:25;1.20;40.80
29777;DHT22;16677;52.224;7.484;2023-04-06T03:31:53;1.30;6.90
29777;DHT22;16677;52.224;7.484;2023-04-06T03:34:20;1.30;1.00
29777;DHT22;16677;52.224;7.484;2023-04-06T03:36:47;1.20;1.00
29777;DHT22;16677;52.224;7.484;2023-04-06T03:39:25;1.20;1.00
29777;DHT22;16677;52.224;7.484;2023-04-06T03:41:52;1.20;1.00
29777;DHT22;16677;52.224;7.484;2023-04-06T03:44:19;1.20;1.00
29777;DHT22;16677;52.224;7.484;2023-04-06T03:46:46;1.20;1.00
29777;DHT22;16677;52.224;7.484;2023-04-06T03:49:13;1.30;1.00
29777;DHT22;16677;52.224;7.484;2023-04-06T03:51:40;1.30;1.00
29777;DHT22;16677;52.224;7.484;2023-04-06T03:54:07;1.30;1.00
29777;DHT22;16677;52.224;7.484;2023-04-06T03:56:34;1.40;1.00
29777;DHT22;16677;52.224;7.484;2023-04-06T03:59:01;1.30;1.00
29777;DHT22;16677;52.224;7.484;2023-04-06T04:01:28;1.40;1.00
29777;DHT22;16677;52.224;7.484;2023-04-06T04:03:56;1.40;1.00
29777;DHT22;16677;52.224;7.484;2023-04-06T04:06:23;1.40;1.00
29777;DHT22;16677;52.224;7.484;2023-04-06T04:08:50;1.40;1.00
29777;DHT22;16677;52.224;7.484;2023-04-06T04:11:16;1.40;1.00
29777;DHT22;16677;52.224;7.484;2023-04-06T04:13:43;1.40;1.00
29777;DHT22;16677;52.224;7.484;2023-04-06T04:16:10;1.40;1.00
29777;DHT22;16677;52.224;7.484;2023-04-06T04:18:37;1.30;1.00
29777;DHT22;16677;52.224;7.484;2023-04-06T04:21:04;1.30;1.00
29777;DHT22;16677;52.224;7.484;2023-04-06T04:23:31;1.30;1.00
29777;DHT22;16677;52.224;7.484;2023-04-06T04:26:00;1.40;1.00
29777;DHT22;16677;52.224;7.484;2023-04-06T04:28:27;1.20;1.00
29777;DHT22;16677;52.224;7.484;2023-04-06T04:30:54;1.20;1.00
29777;DHT22;16677;52.224;7.484;2023-04-06T04:33:21;1.10;1.00
29777;DHT22;16677;52.224;7.484;2023-04-06T04:35:48;1.20;1.00
29777;DHT22;16677;52.224;7.484;2023-04-06T04:38:15;1.10;1.00
29777;DHT22;16677;52.224;7.484;2023-04-06T04:40:42;1.10;1.00
29777;DHT22;16677;52.224;7.484;2023-04-06T04:43:09;1.00;1.00
29777;DHT22;16677;52.224;7.484;2023-04-06T04:45:36;1.10;1.00
29777;DHT22;16677;52.224;7.484;2023-04-06T04:48:03;1.10;1.00
29777;DHT22;16677;52.224;7.484;2023-04-06T04:50:31;1.10;1.00
29777;DHT22;16677;52.224;7.484;2023-04-06T04:52:58;1.10;1.00
29777;DHT22;16677;52.224;7.484;2023-04-06T04:55:25;1.10;1.00
29777;DHT22;16677;52.224;7.484;2023-04-06T04:57:52;1.00;1.00
29777;DHT22;16677;52.224;7.484;2023-04-06T05:00:19;1.00;1.00
29777;DHT22;16677;52.224;7.484;2023-04-06T05:02:47;1.00;1.00
29777;DHT22;16677;52.224;7.484;2023-04-06T05:05:14;1.00;1.00
29777;DHT22;16677;52.224;7.484;2023-04-06T05:07:41;1.00;1.00
29777;DHT22;16677;52.224;7.484;2023-04-06T05:12:43;1.20;1.00
29777;DHT22;16677;52.224;7.484;2023-04-06T05:15:10;1.30;1.00
29777;DHT22;16677;52.224;7.484;2023-04-06T05:17:37;1.30;1.00
29777;DHT22;16677;52.224;7.484;2023-04-06T05:20:06;1.30;1.00
29777;DHT22;16677;52.224;7.484;2023-04-06T05:22:33;1.30;1.00
29777;DHT22;16677;52.224;7.484;2023-04-06T05:25:01;1.30;1.00
29777;DHT22;16677;52.224;7.484;2023-04-06T05:27:29;1.30;1.00
29777;DHT22;16677;52.224;7.484;2023-04-06T05:29:56;1.50;1.00
29777;DHT22;16677;52.224;7.484;2023-04-06T05:32:23;1.60;1.00
29777;DHT22;16677;52.224;7.484;2023-04-06T05:34:51;1.80;1.00
29777;DHT22;16677;52.224;7.484;2023-04-06T05:37:18;1.90;1.00
29777;DHT22;16677;52.224;7.484;2023-04-06T05:39:45;2.20;1.00
29777;DHT22;16677;52.224;7.484;2023-04-06T05:42:12;2.30;1.00
29777;DHT22;16677;52.224;7.484;2023-04-06T05:44:39;2.60;1.00
29777;DHT22;16677;52.224;7.484;2023-04-06T05:47:06;2.80;1.00
29777;DHT22;16677;52.224;7.484;2023-04-06T05:49:33;3.10;1.00
29777;DHT22;16677;52.224;7.484;2023-04-06T05:52:01;3.40;1.00
29777;DHT22;16677;52.224;7.484;2023-04-06T05:54:28;3.70;1.00
29777;DHT22;16677;52.224;7.484;2023-04-06T05:56:54;3.90;1.00
29777;DHT22;16677;52.224;7.484;2023-04-06T05:59:22;4.20;1.00
29777;DHT22;16677;52.224;7.484;2023-04-06T06:01:50;4.50;1.00
29777;DHT22;16677;52.224;7.484;2023-04-06T06:04:17;4.80;1.00
29777;DHT22;16677;52.224;7.484;2023-04-06T06:06:44;4.90;1.00
29777;DHT22;16677;52.224;7.484;2023-04-06T06:09:11;5.00;1.00
29777;DHT22;16677;52.224;7.484;2023-04-06T06:11:38;5.10;1.00
29777;DHT22;16677;52.224;7.484;2023-04-06T06:14:05;5.30;1.00
29777;DHT22;16677;52.224;7.484;2023-04-06T06:16:32;5.50;1.00
29777;DHT22;16677;52.224;7.484;2023-04-06T06:18:59;5.60;1.00
29777;DHT22;16677;52.224;7.484;2023-04-06T06:21:26;5.40;1.00
29777;DHT22;16677;52.224;7.484;2023-04-06T06:23:53;5.70;1.00
29777;DHT22;16677;52.224;7.484;2023-04-06T06:26:21;5.90;1.00
29777;DHT22;16677;52.224;7.484;2023-04-06T06:28:48;6.00;1.00
29777;DHT22;16677;52.224;7.484;2023-04-06T06:31:15;5.90;1.00
29777;DHT22;16677;52.224;7.484;2023-04-06T06:33:43;6.20;1.00
29777;DHT22;16677;52.224;7.484;2023-04-06T06:36:09;6.30;1.00
29777;DHT22;16677;52.224;7.484;2023-04-06T06:38:36;6.50;1.00
29777;DHT22;16677;52.224;7.484;2023-04-06T06:41:04;6.70;1.00
29777;DHT22;16677;52.224;7.484;2023-04-06T06:43:32;7.00;1.00
29777;DHT22;16677;52.224;7.484;2023-04-06T06:45:59;7.30;1.00
29777;DHT22;16677;52.224;7.484;2023-04-06T06:48:26;7.20;1.00
29777;DHT22;16677;52.224;7.484;2023-04-06T06:50:53;7.40;1.00
29777;DHT22;16677;52.224;7.484;2023-04-06T06:53:21;7.40;1.00
29777;DHT22;16677;52.224;7.484;2023-04-06T06:55:48;7.70;1.00
29777;DHT22;16677;52.224;7.484;2023-04-06T06:58:17;7.50;1.00
29777;DHT22;16677;52.224;7.484;2023-04-06T07:00:44;7.90;1.00
29777;DHT22;16677;52.224;7.484;2023-04-06T07:03:12;8.00;1.00
29777;DHT22;16677;52.224;7.484;2023-04-06T07:05:45;8.00;99.90
29777;DHT22;16677;52.224;7.484;2023-04-06T07:08:24;7.90;99.90
29777;DHT22;16677;52.224;7.484;2023-04-06T07:10:52;7.80;99.90
29777;DHT22;16677;52.224;7.484;2023-04-06T07:13:20;7.60;99.90
29777;DHT22;16677;52.224;7.484;2023-04-06T07:15:50;7.80;99.90
29777;DHT22;16677;52.224;7.484;2023-04-06T07:18:18;8.00;99.90
29777;DHT22;16677;52.224;7.484;2023-04-06T07:20:46;8.10;99.90
29777;DHT22;16677;52.224;7.484;2023-04-06T07:23:13;8.10;99.90
29777;DHT22;16677;52.224;7.484;2023-04-06T07:25:41;8.40;99.90
29777;DHT22;16677;52.224;7.484;2023-04-06T07:28:08;8.40;99.90
29777;DHT22;16677;52.224;7.484;2023-04-06T07:30:37;8.30;99.90
29777;DHT22;16677;52.224;7.484;2023-04-06T07:33:04;8.30;99.90
29777;DHT22;16677;52.224;7.484;2023-04-06T07:35:32;8.70;99.90
29777;DHT22;16677;52.224;7.484;2023-04-06T07:38:01;8.70;99.90
29777;DHT22;16677;52.224;7.484;2023-04-06T07:40:29;8.60;99.90
29777;DHT22;16677;52.224;7.484;2023-04-06T07:42:58;8.90;99.90
29777;DHT22;16677;52.224;7.484;2023-04-06T07:45:25;9.00;99.90
29777;DHT22;16677;52.224;7.484;2023-04-06T07:47:52;8.90;99.90
29777;DHT22;16677;52.224;7.484;2023-04-06T07:50:19;9.00;99.90
29777;DHT22;16677;52.224;7.484;2023-04-06T07:52:46;9.10;99.90
29777;DHT22;16677;52.224;7.484;2023-04-06T07:55:14;9.10;99.90
29777;DHT22;16677;52.224;7.484;2023-04-06T07:57:41;9.00;99.90
29777;DHT22;16677;52.224;7.484;2023-04-06T08:00:08;9.20;99.90
29777;DHT22;16677;52.224;7.484;2023-04-06T08:02:36;9.30;99.90
29777;DHT22;16677;52.224;7.484;2023-04-06T08:05:04;9.30;99.90
29777;DHT22;16677;52.224;7.484;2023-04-06T08:07:32;9.20;99.90
29777;DHT22;16677;52.224;7.484;2023-04-06T08:09:59;9.30;99.90
29777;DHT22;16677;52.224;7.484;2023-04-06T08:12:26;9.30;99.90
29777;DHT22;16677;52.224;7.484;2023-04-06T08:14:53;9.60;99.90
29777;DHT22;16677;52.224;7.484;2023-04-06T08:17:20;9.90;99.90
29777;DHT22;16677;52.224;7.484;2023-04-06T08:19:47;9.90;99.90
29777;DHT22;16677;52.224;7.484;2023-04-06T08:22:14;10.00;99.90
29777;DHT22;16677;52.224;7.484;2023-04-06T08:24:41;9.90;99.90
29777;DHT22;16677;52.224;7.484;2023-04-06T08:27:09;10.40;99.90
29777;DHT22;16677;52.224;7.484;2023-04-06T08:29:36;10.40;99.90
29777;DHT22;16677;52.224;7.484;2023-04-06T08:32:03;10.70;99.90
29777;DHT22;16677;52.224;7.484;2023-04-06T08:34:32;10.50;99.90
29777;DHT22;16677;52.224;7.484;2023-04-06T08:37:00;10.80;99.90
29777;DHT22;16677;52.224;7.484;2023-04-06T08:39:27;10.70;99.90
29777;DHT22;16677;52.224;7.484;2023-04-06T08:41:57;10.50;99.90
29777;DHT22;16677;52.224;7.484;2023-04-06T08:44:26;10.50;99.90
29777;DHT22;16677;52.224;7.484;2023-04-06T08:46:54;10.90;99.90
29777;DHT22;16677;52.224;7.484;2023-04-06T08:49:21;11.20;99.90
29777;DHT22;16677;52.224;7.484;2023-04-06T08:51:49;11.00;99.90
29777;DHT22;16677;52.224;7.484;2023-04-06T08:54:17;11.00;99.90
29777;DHT22;16677;52.224;7.484;2023-04-06T08:56:45;11.10;99.90
29777;DHT22;16677;52.224;7.484;2023-04-06T08:59:13;10.50;99.90
29777;DHT22;16677;52.224;7.484;2023-04-06T09:01:41;10.50;99.90
29777;DHT22;16677;52.224;7.484;2023-04-06T09:04:10;10.90;99.90
29777;DHT22;16677;52.224;7.484;2023-04-06T09:06:39;10.80;99.90
29777;DHT22;16677;52.224;7.484;2023-04-06T09:09:08;10.90;99.90
29777;DHT22;16677;52.224;7.484;2023-04-06T09:11:49;11.20;99.90
29777;DHT22;16677;52.224;7.484;2023-04-06T09:14:17;11.40;99.90
29777;DHT22;16677;52.224;7.484;2023-04-06T09:16:59;11.60;99.90
29777;DHT22;16677;52.224;7.484;2023-04-06T09:19:25;11.70;99.90
29777;DHT22;16677;52.224;7.484;2023-04-06T09:22:05;11.90;99.90
29777;DHT22;16677;52.224;7.484;2023-04-06T09:24:42;12.00;99.90
29777;DHT22;16677;52.224;7.484;2023-04-06T09:27:10;12.20;99.90
29777;DHT22;16677;52.224;7.484;2023-04-06T09:29:37;12.00;99.90
29777;DHT22;16677;52.224;7.484;2023-04-06T09:32:08;12.00;99.90
29777;DHT22;16677;52.224;7.484;2023-04-06T09:34:46;12.00;99.90
29777;DHT22;16677;52.224;7.484;2023-04-06T09:37:17;12.10;99.90
29777;DHT22;16677;52.224;7.484;2023-04-06T09:39:45;12.10;99.90
29777;DHT22;16677;52.224;7.484;2023-04-06T09:42:25;12.10;99.90
29777;DHT22;16677;52.224;7.484;2023-04-06T09:44:52;12.10;99.90
29777;DHT22;16677;52.224;7.484;2023-04-06T09:47:20;12.30;99.90
29777;DHT22;16677;52.224;7.484;2023-04-06T09:49:58;12.20;99.90
29777;DHT22;16677;52.224;7.484;2023-04-06T09:52:52;11.80;99.90
29777;DHT22;16677;52.224;7.484;2023-04-06T09:55:31;11.60;99.90
29777;DHT22;16677;52.224;7.484;2023-04-06T09:58:18;12.00;99.90
29777;DHT22;16677;52.224;7.484;2023-04-06T10:03:31;12.50;99.90
29777;DHT22;16677;52.224;7.484;2023-04-06T10:06:05;12.80;99.90
29777;DHT22;16677;52.224;7.484;2023-04-06T10:08:33;13.00;99.90
29777;DHT22;16677;52.224;7.484;2023-04-06T10:11:00;13.10;99.90
29777;DHT22;16677;52.224;7.484;2023-04-06T10:13:27;13.30;99.90
29777;DHT22;16677;52.224;7.484;2023-04-06T10:15:54;13.40;99.90
29777;DHT22;16677;52.224;7.484;2023-04-06T10:18:21;12.80;99.90
29777;DHT22;16677;52.224;7.484;2023-04-06T10:20:50;12.90;99.90
29777;DHT22;16677;52.224;7.484;2023-04-06T10:23:36;12.90;99.90
29777;DHT22;16677;52.224;7.484;2023-04-06T10:26:12;12.80;99.90
29777;DHT22;16677;52.224;7.484;2023-04-06T10:28:41;12.70;99.90
29777;DHT22;16677;52.224;7.484;2023-04-06T10:31:08;12.90;99.90
29777;DHT22;16677;52.224;7.484;2023-04-06T10:33:35;12.90;99.90
29777;DHT22;16677;52.224;7.484;2023-04-06T10:36:12;12.80;99.90
29777;DHT22;16677;52.224;7.484;2023-04-06T10:38:53;12.80;99.90
29777;DHT22;16677;52.224;7.484;2023-04-06T10:41:21;12.90;99.90
29777;DHT22;16677;52.224;7.484;2023-04-06T10:43:57;13.30;99.90
29777;DHT22;16677;52.224;7.484;2023-04-06T10:46:31;13.60;99.90
29777;DHT22;16677;52.224;7.484;2023-04-06T10:49:20;13.80;99.90
29777;DHT22;16677;52.224;7.484;2023-04-06T10:51:50;13.80;99.90
29777;DHT22;16677;52.224;7.484;2023-04-06T10:54:18;13.40;99.90
29777;DHT22;16677;52.224;7.484;2023-04-06T10:56:47;13.20;99.90
29777;DHT22;16677;52.224;7.484;2023-04-06T10:59:22;13.70;99.90
29777;DHT22;16677;52.224;7.484;2023-04-06T11:01:51;14.00;99.90
29777;DHT22;16677;52.224;7.484;2023-04-06T11:04:19;14.20;99.90
29777;DHT22;16677;52.224;7.484;2023-04-06T11:06:48;14.50;99.90
29777;DHT22;16677;52.224;7.484;2023-04-06T11:09:29;14.40;99.90
29777;DHT22;16677;52.224;7.484;2023-04-06T11:11:58;13.90;99.90
29777;DHT22;16677;52.224;7.484;2023-04-06T11:14:28;14.50;99.90
29777;DHT22;16677;52.224;7.484;2023-04-06T11:16:59;14.10;99.90
29777;DHT22;16677;52.224;7.484;2023-04-06T11:19:39;14.50;99.90
29777;DHT22;16677;52.224;7.484;2023-04-06T11:22:17;14.80;99.90
29777;DHT22;16677;52.224;7.484;2023-04-06T11:28:02;14.20;99.90
29777;DHT22;16677;52.224;7.484;2023-04-06T11:30:29;14.40;99.90
29777;DHT22;16677;52.224;7.484;2023-04-06T11:33:00;14.30;99.90
29777;DHT22;16677;52.224;7.484;2023-04-06T11:35:28;14.70;99.90
29777;DHT22;16677;52.224;7.484;2023-04-06T11:37:57;14.20;99.90
29777;DHT22;16677;52.224;7.484;2023-04-06T11:40:25;14.20;99.90
29777;DHT22;16677;52.224;7.484;2023-04-06T11:42:57;14.40;99.90
29777;DHT22;16677;52.224;7.484;2023-04-06T11:45:24;14.10;99.90
29777;DHT22;16677;52.224;7.484;2023-04-06T11:47:58;14.20;99.90
29777;DHT22;16677;52.224;7.484;2023-04-06T11:50:31;14.20;99.90
29777;DHT22;16677;52.224;7.484;2023-04-06T11:53:01;14.10;99.90
29777;DHT22;16677;52.224;7.484;2023-04-06T11:55:29;14.40;99.90
29777;DHT22;16677;52.224;7.484;2023-04-06T11:58:03;14.30;99.90
29777;DHT22;16677;52.224;7.484;2023-04-06T12:00:31;14.40;99.90
29777;DHT22;16677;52.224;7.484;2023-04-06T12:03:01;14.10;99.90
29777;DHT22;16677;52.224;7.484;2023-04-06T12:05:28;14.20;99.90
29777;DHT22;16677;52.224;7.484;2023-04-06T12:07:55;14.40;99.90
29777;DHT22;16677;52.224;7.484;2023-04-06T12:10:25;14.60;99.90
29777;DHT22;16677;52.224;7.484;2023-04-06T12:12:52;14.70;99.90
29777;DHT22;16677;52.224;7.484;2023-04-06T12:15:19;14.80;99.90
29777;DHT22;16677;52.224;7.484;2023-04-06T12:17:46;14.80;99.90
29777;DHT22;16677;52.224;7.484;2023-04-06T12:20:17;14.80;99.90
29777;DHT22;16677;52.224;7.484;2023-04-06T12:22:52;14.90;99.90
29777;DHT22;16677;52.224;7.484;2023-04-06T12:25:19;15.10;99.90
29777;DHT22;16677;52.224;7.484;2023-04-06T12:27:46;15.30;99.90
29777;DHT22;16677;52.224;7.484;2023-04-06T12:30:14;15.30;99.90
29777;DHT22;16677;52.224;7.484;2023-04-06T12:32:42;15.20;99.90
29777;DHT22;16677;52.224;7.484;2023-04-06T12:35:09;15.00;99.90
29777;DHT22;16677;52.224;7.484;2023-04-06T12:37:38;14.80;99.90
29777;DHT22;16677;52.224;7.484;2023-04-06T12:40:05;14.60;99.90
29777;DHT22;16677;52.224;7.484;2023-04-06T12:42:32;14.70;99.90
29777;DHT22;16677;52.224;7.484;2023-04-06T12:44:59;14.60;99.90
29777;DHT22;16677;52.224;7.484;2023-04-06T12:47:26;14.50;99.90
29777;DHT22;16677;52.224;7.484;2023-04-06T12:49:54;14.60;99.90
29777;DHT22;16677;52.224;7.484;2023-04-06T12:52:21;14.60;99.90
29777;DHT22;16677;52.224;7.484;2023-04-06T12:54:48;14.60;99.90
29777;DHT22;16677;52.224;7.484;2023-04-06T12:57:16;14.70;99.90
29777;DHT22;16677;52.224;7.484;2023-04-06T12:59:43;14.80;99.90
29777;DHT22;16677;52.224;7.484;2023-04-06T13:02:11;15.10;99.90
29777;DHT22;16677;52.224;7.484;2023-04-06T13:04:38;15.10;99.90
29777;DHT22;16677;52.224;7.484;2023-04-06T13:07:05;14.90;99.90
29777;DHT22;16677;52.224;7.484;2023-04-06T13:09:32;15.30;99.90
29777;DHT22;16677;52.224;7.484;2023-04-06T13:11:59;15.50;99.90
29777;DHT22;16677;52.224;7.484;2023-04-06T13:14:27;15.80;99.90
29777;DHT22;16677;52.224;7.484;2023-04-06T13:16:54;15.40;99.90
29777;DHT22;16677;52.224;7.484;2023-04-06T13:19:21;15.30;99.90
29777;DHT22;16677;52.224;7.484;2023-04-06T13:21:49;15.40;99.90
29777;DHT22;16677;52.224;7.484;2023-04-06T13:24:16;15.40;99.90
29777;DHT22;16677;52.224;7.484;2023-04-06T13:26:43;15.30;99.90
29777;DHT22;16677;52.224;7.484;2023-04-06T13:29:10;15.10;99.90
29777;DHT22;16677;52.224;7.484;2023-04-06T13:31:37;15.00;99.90
29777;DHT22;16677;52.224;7.484;2023-04-06T13:34:05;15.10;99.90
29777;DHT22;16677;52.224;7.484;2023-04-06T13:36:32;15.20;99.90
29777;DHT22;16677;52.224;7.484;2023-04-06T13:39:00;14.90;99.90
29777;DHT22;16677;52.224;7.484;2023-04-06T13:41:27;15.20;99.90
29777;DHT22;16677;52.224;7.484;2023-04-06T13:43:54;15.40;99.90
29777;DHT22;16677;52.224;7.484;2023-04-06T13:46:21;15.40;99.90
29777;DHT22;16677;52.224;7.484;2023-04-06T13:48:50;15.10;99.90
29777;DHT22;16677;52.224;7.484;2023-04-06T13:51:17;14.70;99.90
29777;DHT22;16677;52.224;7.484;2023-04-06T13:53:44;14.60;99.90
29777;DHT22;16677;52.224;7.484;2023-04-06T13:56:11;14.90;99.90
29777;DHT22;16677;52.224;7.484;2023-04-06T13:58:39;15.40;99.90
29777;DHT22;16677;52.224;7.484;2023-04-06T14:01:06;15.20;99.90
29777;DHT22;16677;52.224;7.484;2023-04-06T14:03:36;15.30;99.90
29777;DHT22;16677;52.224;7.484;2023-04-06T14:06:13;15.30;99.90
29777;DHT22;16677;52.224;7.484;2023-04-06T14:08:55;15.10;99.90
29777;DHT22;16677;52.224;7.484;2023-04-06T14:11:23;15.10;99.90
29777;DHT22;16677;52.224;7.484;2023-04-06T14:13:50;15.10;99.90
29777;DHT22;16677;52.224;7.484;2023-04-06T14:16:17;15.20;99.90
29777;DHT22;16677;52.224;7.484;2023-04-06T14:18:46;15.30;99.90
29777;DHT22;16677;52.224;7.484;2023-04-06T14:21:13;15.40;99.90
29777;DHT22;16677;52.224;7.484;2023-04-06T14:23:41;15.50;99.90
29777;DHT22;16677;52.224;7.484;2023-04-06T14:26:08;15.70;99.90
29777;DHT22;16677;52.224;7.484;2023-04-06T14:28:35;15.80;99.90
29777;DHT22;16677;52.224;7.484;2023-04-06T14:31:10;15.80;99.90
29777;DHT22;16677;52.224;7.484;2023-04-06T14:33:38;15.50;99.90
29777;DHT22;16677;52.224;7.484;2023-04-06T14:36:06;15.40;99.90
29777;DHT22;16677;52.224;7.484;2023-04-06T14:38:34;15.20;99.90
29777;DHT22;16677;52.224;7.484;2023-04-06T14:41:02;14.90;99.90
29777;DHT22;16677;52.224;7.484;2023-04-06T14:43:31;14.90;99.90
29777;DHT22;16677;52.224;7.484;2023-04-06T14:46:01;14.90;99.90
29777;DHT22;16677;52.224;7.484;2023-04-06T14:48:28;14.70;99.90
29777;DHT22;16677;52.224;7.484;2023-04-06T14:50:55;14.90;99.90
29777;DHT22;16677;52.224;7.484;2023-04-06T14:53:25;14.90;99.90
29777;DHT22;16677;52.224;7.484;2023-04-06T14:55:52;15.00;99.90
29777;DHT22;16677;52.224;7.484;2023-04-06T14:58:21;14.90;99.90
29777;DHT22;16677;52.224;7.484;2023-04-06T15:00:49;14.90;99.90
29777;DHT22;16677;52.224;7.484;2023-04-06T15:03:16;14.80;99.90
29777;DHT22;16677;52.224;7.484;2023-04-06T15:05:43;14.80;99.90
29777;DHT22;16677;52.224;7.484;2023-04-06T15:08:10;14.70;99.90
29777;DHT22;16677;52.224;7.484;2023-04-06T15:10:38;14.10;99.90
29777;DHT22;16677;52.224;7.484;2023-04-06T15:13:05;14.00;99.90
29777;DHT22;16677;52.224;7.484;2023-04-06T15:15:32;14.00;99.90
29777;DHT22;16677;52.224;7.484;2023-04-06T15:17:59;14.00;99.90
29777;DHT22;16677;52.224;7.484;2023-04-06T15:20:29;13.70;99.90
29777;DHT22;16677;52.224;7.484;2023-04-06T15:22:56;13.30;99.90
29777;DHT22;16677;52.224;7.484;2023-04-06T15:25:23;13.10;99.90
29777;DHT22;16677;52.224;7.484;2023-04-06T15:27:50;13.10;99.90
29777;DHT22;16677;52.224;7.484;2023-04-06T15:30:17;13.20;99.90
29777;DHT22;16677;52.224;7.484;2023-04-06T15:35:27;12.60;99.90
29777;DHT22;16677;52.224;7.484;2023-04-06T15:37:55;12.80;99.90
29777;DHT22;16677;52.224;7.484;2023-04-06T15:40:23;12.80;99.90
29777;DHT22;16677;52.224;7.484;2023-04-06T15:42:51;13.00;99.90
29777;DHT22;16677;52.224;7.484;2023-04-06T15:45:18;13.20;99.90
29777;DHT22;16677;52.224;7.484;2023-04-06T15:47:45;13.20;99.90
29777;DHT22;16677;52.224;7.484;2023-04-06T15:50:13;13.00;99.90
29777;DHT22;16677;52.224;7.484;2023-04-06T15:52:40;12.90;99.90
29777;DHT22;16677;52.224;7.484;2023-04-06T15:55:07;12.80;99.90
29777;DHT22;16677;52.224;7.484;2023-04-06T15:57:35;12.90;99.90
29777;DHT22;16677;52.224;7.484;2023-04-06T16:00:02;12.70;99.90